createdAt,value
2018-06-19T00:01:54.713Z,100668.14
2018-06-19T00:04:24.545Z,100669.80
2018-06-19T00:06:54.324Z,100672.17
2018-06-19T00:09:24.134Z,100667.41
2018-06-19T00:11:53.890Z,100667.08
2018-06-19T00:14:23.693Z,100671.61
2018-06-19T00:16:53.746Z,100671.61
2018-06-19T00:19:23.602Z,100669.64
2018-06-19T00:21:56.442Z,100674.52
2018-06-19T00:24:26.241Z,100678.73
2018-06-19T00:26:56.014Z,100677.92
2018-06-19T00:29:25.969Z,100678.95
2018-06-19T00:31:55.953Z,100679.97
2018-06-19T00:34:25.779Z,100679.12
2018-06-19T00:36:55.521Z,100683.37
2018-06-19T00:39:25.296Z,100679.02
2018-06-19T00:41:55.041Z,100677.54
2018-06-19T00:44:24.771Z,100687.16
2018-06-19T00:46:55.142Z,100683.30
2018-06-19T00:49:24.885Z,100684.02
2018-06-19T00:51:54.667Z,100687.59
2018-06-19T00:54:24.421Z,100686.75
2018-06-19T00:56:57.397Z,100688.94
2018-06-19T00:59:27.578Z,100689.43
2018-06-19T01:01:58.863Z,100701.21
2018-06-19T01:04:28.655Z,100691.48
2018-06-19T01:06:58.430Z,100692.52
2018-06-19T01:09:28.169Z,100696.55
2018-06-19T01:11:58.028Z,100698.41
2018-06-19T01:14:27.777Z,100695.59
2018-06-19T01:16:57.577Z,100686.89
2018-06-19T01:19:27.301Z,100692.58
2018-06-19T01:21:57.044Z,100698.98
2018-06-19T01:24:26.821Z,100687.59
2018-06-19T01:26:56.598Z,100689.97
2018-06-19T01:29:26.367Z,100686.15
2018-06-19T01:31:56.124Z,100688.83
2018-06-19T01:34:26.302Z,100688.63
2018-06-19T01:36:56.038Z,100687.49
2018-06-19T01:39:25.809Z,100689.33
2018-06-19T01:41:55.549Z,100691.70
2018-06-19T01:44:25.345Z,100690.36
2018-06-19T01:46:55.112Z,100687.35
2018-06-19T01:49:24.853Z,100692.41
2018-06-19T01:51:54.620Z,100688.37
2018-06-19T01:54:24.353Z,100683.22
2018-06-19T01:56:54.113Z,100686.39
2018-06-19T01:59:23.856Z,100687.42
2018-06-19T02:01:53.621Z,100690.64
2018-06-19T02:04:23.373Z,100696.50
2018-06-19T02:06:53.155Z,100699.20
2018-06-19T02:09:22.889Z,100695.38
2018-06-19T02:11:52.625Z,100695.87
2018-06-19T02:14:22.413Z,100698.56
2018-06-19T02:16:52.173Z,100701.95
2018-06-19T02:19:21.910Z,100702.97
2018-06-19T02:21:51.733Z,100694.98
2018-06-19T02:24:21.493Z,100703.04
2018-06-19T02:26:51.282Z,100699.22
2018-06-19T02:29:21.053Z,100701.59
2018-06-19T02:31:51.163Z,100699.61
2018-06-19T02:34:20.962Z,100700.10
2018-06-19T02:36:50.711Z,100702.47
2018-06-19T02:39:20.795Z,100698.83
2018-06-19T02:41:50.541Z,100701.72
2018-06-19T02:44:20.341Z,100702.22
2018-06-19T02:46:50.072Z,100703.94
2018-06-19T02:49:19.804Z,100703.80
2018-06-19T02:51:49.582Z,100702.03
2018-06-19T02:54:19.327Z,100707.08
2018-06-19T02:56:49.070Z,100705.59
2018-06-19T02:59:18.856Z,100710.33
2018-06-19T03:01:48.593Z,100706.67
2018-06-19T03:04:18.375Z,100707.91
2018-06-19T03:06:48.117Z,100705.98
2018-06-19T03:09:18.269Z,100704.64
2018-06-19T03:11:48.013Z,100702.98
2018-06-19T03:14:17.799Z,100705.03
2018-06-19T03:16:47.547Z,100704.59
2018-06-19T03:19:17.407Z,100701.00
2018-06-19T03:21:47.170Z,100706.48
2018-06-19T03:24:16.909Z,100707.86
2018-06-19T03:26:46.705Z,100712.80
2018-06-19T03:29:16.491Z,100712.41
2018-06-19T03:31:46.265Z,100713.83
2018-06-19T03:34:15.999Z,100721.69
2018-06-19T03:36:45.759Z,100718.44
2018-06-19T03:39:15.540Z,100713.38
2018-06-19T03:41:45.409Z,100711.92
2018-06-19T03:44:15.206Z,100716.84
2018-06-19T03:46:44.951Z,100718.50
2018-06-19T03:49:14.711Z,100717.48
2018-06-19T03:51:44.800Z,100723.23
2018-06-19T03:54:14.537Z,100716.83
2018-06-19T03:56:44.325Z,100723.23
2018-06-19T03:59:14.075Z,100723.48
2018-06-19T04:01:43.824Z,100719.27
2018-06-19T04:04:13.611Z,100716.76
2018-06-19T04:06:43.380Z,100717.15
2018-06-19T04:09:13.121Z,100720.16
2018-06-19T04:11:42.906Z,100718.42
2018-06-19T04:14:12.647Z,100728.45
2018-06-19T04:16:42.493Z,100729.83
2018-06-19T04:19:12.233Z,100729.91
2018-06-19T04:21:41.986Z,100732.81
2018-06-19T04:24:11.788Z,100737.97
2018-06-19T04:26:41.570Z,100733.38
2018-06-19T04:29:11.361Z,100735.28
2018-06-19T04:31:41.105Z,100738.75
2018-06-19T04:34:10.843Z,100738.89
2018-06-19T04:36:40.640Z,100735.50
2018-06-19T04:39:12.535Z,100738.69
2018-06-19T04:41:42.713Z,100735.05
2018-06-19T04:44:12.449Z,100732.95
2018-06-19T04:46:42.262Z,100725.39
2018-06-19T04:49:11.993Z,100731.08
2018-06-19T04:51:41.730Z,100734.09
2018-06-19T04:54:11.513Z,100726.48
2018-06-19T04:56:41.269Z,100731.14
2018-06-19T04:59:11.059Z,100725.31
2018-06-19T05:01:40.791Z,100731.14
2018-06-19T05:04:10.563Z,100729.98
2018-06-19T05:06:40.345Z,100734.16
2018-06-19T05:09:13.037Z,100732.48
2018-06-19T05:11:44.409Z,100734.58
2018-06-19T05:14:14.225Z,100734.81
2018-06-19T05:16:44.026Z,100735.33
2018-06-19T05:19:13.769Z,100736.59
2018-06-19T05:21:43.582Z,100738.17
2018-06-19T05:24:13.344Z,100737.38
2018-06-19T05:26:43.141Z,100736.59
2018-06-19T05:29:12.885Z,100737.14
2018-06-19T05:31:42.686Z,100738.80
2018-06-19T05:34:12.517Z,100744.41
2018-06-19T05:36:42.254Z,100746.27
2018-06-19T05:39:12.700Z,100743.71
2018-06-19T05:41:42.433Z,100743.94
2018-06-19T05:44:12.250Z,100744.80
2018-06-19T05:46:42.041Z,100748.03
2018-06-19T05:49:11.836Z,100749.91
2018-06-19T05:51:41.582Z,100753.78
2018-06-19T05:54:11.740Z,100756.38
2018-06-19T05:56:41.478Z,100754.00
2018-06-19T05:59:11.253Z,100753.09
2018-06-19T06:01:41.051Z,100762.92
2018-06-19T06:04:10.845Z,100759.95
2018-06-19T06:06:40.574Z,100767.31
2018-06-19T06:09:11.114Z,100770.55
2018-06-19T06:11:40.845Z,100773.77
2018-06-19T06:14:10.611Z,100769.52
2018-06-19T06:16:40.468Z,100772.77
2018-06-19T06:19:10.345Z,100766.88
2018-06-19T06:21:40.173Z,100767.19
2018-06-19T06:24:09.905Z,100768.34
2018-06-19T06:26:39.709Z,100772.19
2018-06-19T06:29:09.482Z,100771.86
2018-06-19T06:31:39.565Z,100771.66
2018-06-19T06:34:09.362Z,100773.74
2018-06-19T06:36:39.102Z,100775.64
2018-06-19T06:39:09.505Z,100773.88
2018-06-19T06:41:39.490Z,100779.06
2018-06-19T06:44:09.264Z,100775.95
2018-06-19T06:46:39.082Z,100777.09
2018-06-19T06:49:08.811Z,100776.06
2018-06-19T06:51:38.592Z,100778.84
2018-06-19T06:54:08.342Z,100780.52
2018-06-19T06:56:38.206Z,100778.32
2018-06-19T06:59:07.986Z,100785.58
2018-06-19T07:01:37.766Z,100783.77
2018-06-19T07:04:07.669Z,100783.15
2018-06-19T07:06:37.467Z,100783.11
2018-06-19T07:09:10.244Z,100781.76
2018-06-19T07:11:40.121Z,100780.78
2018-06-19T07:14:10.196Z,100782.78
2018-06-19T07:16:39.933Z,100782.67
2018-06-19T07:19:09.870Z,100776.97
2018-06-19T07:21:39.945Z,100777.69
2018-06-19T07:24:09.742Z,100786.29
2018-06-19T07:26:39.496Z,100778.23
2018-06-19T07:29:09.265Z,100780.31
2018-06-19T07:31:39.030Z,100785.28
2018-06-19T07:34:08.818Z,100782.86
2018-06-19T07:36:38.568Z,100777.38
2018-06-19T07:39:09.900Z,100773.13
2018-06-19T07:41:39.638Z,100773.09
2018-06-19T07:44:09.484Z,100771.23
2018-06-19T07:46:39.425Z,100773.80
2018-06-19T07:49:09.223Z,100773.38
2018-06-19T07:51:39.002Z,100768.02
2018-06-19T07:54:08.781Z,100771.34
2018-06-19T07:56:38.557Z,100764.86
2018-06-19T07:59:08.334Z,100767.16
2018-06-19T08:01:38.090Z,100768.68
2018-06-19T08:04:07.860Z,100765.02
2018-06-19T08:06:37.651Z,100756.34
2018-06-19T08:09:09.934Z,100767.18
2018-06-19T08:11:39.772Z,100759.35
2018-06-19T08:14:09.536Z,100753.62
2018-06-19T08:16:39.336Z,100762.91
2018-06-19T08:19:09.104Z,100764.41
2018-06-19T08:21:38.841Z,100764.75
2018-06-19T08:24:08.782Z,100760.67
2018-06-19T08:26:38.570Z,100761.34
2018-06-19T08:29:08.358Z,100761.86
2018-06-19T08:31:38.122Z,100753.66
2018-06-19T08:34:07.876Z,100759.68
2018-06-19T08:36:37.690Z,100761.20
2018-06-19T08:39:10.914Z,100771.67
2018-06-19T08:41:41.096Z,100769.05
2018-06-19T08:44:10.897Z,100768.75
2018-06-19T08:46:41.922Z,100758.94
2018-06-19T08:49:13.028Z,100766.61
2018-06-19T08:51:42.842Z,100769.06
2018-06-19T08:54:12.606Z,100770.82
2018-06-19T08:56:42.416Z,100765.19
2018-06-19T08:59:12.149Z,100761.02
2018-06-19T09:01:41.894Z,100766.17
2018-06-19T09:04:11.873Z,100752.42
2018-06-19T09:06:41.650Z,100750.81
2018-06-19T09:09:12.625Z,100748.13
2018-06-19T09:11:42.880Z,100747.98
2018-06-19T09:14:12.674Z,100756.94
2018-06-19T09:16:42.414Z,100763.13
2018-06-19T09:19:12.225Z,100749.22
2018-06-19T09:21:41.973Z,100745.37
2018-06-19T09:24:11.830Z,100747.59
2018-06-19T09:26:41.621Z,100745.41
2018-06-19T09:29:11.589Z,100743.52
2018-06-19T09:31:41.463Z,100740.14
2018-06-19T09:34:11.441Z,100740.27
2018-06-19T09:36:41.277Z,100734.80
2018-06-19T09:39:13.141Z,100743.02
2018-06-19T09:41:44.337Z,100732.89
2018-06-19T09:44:14.090Z,100736.56
2018-06-19T09:46:43.909Z,100733.84
2018-06-19T09:49:13.712Z,100738.84
2018-06-19T09:51:44.129Z,100730.65
2018-06-19T09:54:13.927Z,100734.80
2018-06-19T09:56:43.810Z,100735.97
2018-06-19T09:59:13.761Z,100728.44
2018-06-19T10:01:44.008Z,100730.64
2018-06-19T10:04:13.815Z,100729.02
2018-06-19T10:06:43.817Z,100720.75
2018-06-19T10:09:13.620Z,100718.89
2018-06-19T10:11:43.443Z,100722.67
2018-06-19T10:14:13.233Z,100720.35
2018-06-19T10:16:43.018Z,100722.30
2018-06-19T10:19:12.790Z,100725.31
2018-06-19T10:21:42.701Z,100720.54
2018-06-19T10:24:12.807Z,100719.27
2018-06-19T10:26:42.645Z,100721.76
2018-06-19T10:29:12.392Z,100720.34
2018-06-19T10:31:42.261Z,100722.02
2018-06-19T10:34:12.027Z,100711.78
2018-06-19T10:36:41.781Z,100708.05
2018-06-19T10:39:12.366Z,100724.87
2018-06-19T10:41:42.186Z,100723.08
2018-06-19T10:44:11.951Z,100717.33
2018-06-19T10:46:41.824Z,100704.73
2018-06-19T10:49:11.605Z,100699.03
2018-06-19T10:51:41.465Z,100700.91
2018-06-19T10:54:11.434Z,100698.84
2018-06-19T10:56:41.295Z,100701.49
2018-06-19T10:59:11.112Z,100704.71
2018-06-19T11:01:41.204Z,100701.52
2018-06-19T11:04:11.001Z,100696.91
2018-06-19T11:06:40.825Z,100699.98
2018-06-19T11:09:12.518Z,100711.45
2018-06-19T11:11:42.817Z,100709.94
2018-06-19T11:14:12.790Z,100717.64
2018-06-19T11:16:42.716Z,100710.02
2018-06-19T11:19:12.521Z,100717.81
2018-06-19T11:21:42.396Z,100725.98
2018-06-19T11:24:12.197Z,100727.23
2018-06-19T11:26:41.937Z,100723.84
2018-06-19T11:29:11.702Z,100720.02
2018-06-19T11:31:41.557Z,100732.80
2018-06-19T11:34:11.341Z,100729.33
2018-06-19T11:36:41.438Z,100724.64
2018-06-19T11:39:13.443Z,100723.89
2018-06-19T11:41:44.138Z,100718.30
2018-06-19T11:44:13.899Z,100725.31
2018-06-19T11:46:43.671Z,100729.16
2018-06-19T11:49:13.530Z,100728.55
2018-06-19T11:51:43.479Z,100723.16
2018-06-19T11:54:13.285Z,100720.95
2018-06-19T11:56:43.061Z,100726.56
2018-06-19T11:59:12.872Z,100721.22
2018-06-19T12:01:42.729Z,100721.79
2018-06-19T12:04:12.594Z,100721.30
2018-06-19T12:06:42.633Z,100718.75
2018-06-19T12:09:12.740Z,100726.34
2018-06-19T12:11:42.641Z,100721.69
2018-06-19T12:14:12.842Z,100726.83
2018-06-19T12:16:42.699Z,100735.75
2018-06-19T12:19:12.513Z,100734.31
2018-06-19T12:21:42.437Z,100734.12
2018-06-19T12:24:12.253Z,100736.47
2018-06-19T12:26:42.291Z,100740.62
2018-06-19T12:29:12.110Z,100739.83
2018-06-19T12:31:41.954Z,100739.80
2018-06-19T12:34:11.809Z,100737.92
2018-06-19T12:36:41.894Z,100740.02
2018-06-19T12:39:12.812Z,100730.94
2018-06-19T12:41:44.647Z,100733.94
2018-06-19T12:44:14.489Z,100740.56
2018-06-19T12:46:44.457Z,100733.00
2018-06-19T12:49:14.455Z,100734.98
2018-06-19T12:51:59.133Z,100736.67
2018-06-19T12:54:56.493Z,100738.80
2018-06-19T12:57:26.317Z,100705.98
2018-06-19T12:59:56.142Z,100729.70
2018-06-19T13:02:26.034Z,100730.53
2018-06-19T13:05:06.337Z,100729.33
2018-06-19T13:07:40.257Z,100725.42
2018-06-19T13:10:10.309Z,100723.94
2018-06-19T13:13:50.565Z,100724.64
2018-06-19T13:16:30.845Z,100729.95
2018-06-19T13:19:11.274Z,100728.50
2018-06-19T13:21:41.114Z,100729.98
2018-06-19T13:24:10.961Z,100724.09
2018-06-19T13:26:40.761Z,100727.49
2018-06-19T13:29:47.778Z,100729.09
2018-06-19T13:32:17.566Z,100725.98
2018-06-19T13:34:47.415Z,100733.52
2018-06-19T13:37:17.188Z,100732.30
2018-06-19T13:39:47.672Z,100735.97
2018-06-19T13:42:28.157Z,100734.43
2018-06-19T13:45:01.936Z,100728.15
2018-06-19T13:47:31.722Z,100732.77
2018-06-19T13:50:01.637Z,100727.81
2018-06-19T13:52:31.383Z,100729.02
2018-06-19T13:56:10.517Z,100732.52
2018-06-19T13:58:40.349Z,100730.92
2018-06-19T14:01:10.421Z,100731.67
2018-06-19T14:03:40.202Z,100731.45
2018-06-19T14:06:09.952Z,100733.23
2018-06-19T14:08:51.661Z,100733.56
2018-06-19T14:11:31.957Z,100738.52
2018-06-19T14:14:01.763Z,100733.11
2018-06-19T14:16:31.489Z,100740.84
2018-06-19T14:19:01.300Z,100741.81
2018-06-19T14:21:31.036Z,100746.19
2018-06-19T14:24:00.818Z,100742.54
2018-06-19T14:26:30.585Z,100752.16
2018-06-19T14:29:00.394Z,100735.67
2018-06-19T14:31:30.208Z,100748.31
2018-06-19T14:34:00.044Z,100742.88
2018-06-19T14:36:29.786Z,100743.00
2018-06-19T14:38:59.618Z,100740.53
2018-06-19T14:41:29.574Z,100741.78
2018-06-19T14:43:59.481Z,100743.55
2018-06-19T14:46:29.227Z,100741.14
2018-06-19T14:48:59.016Z,100738.59
2018-06-19T14:51:28.834Z,100738.30
2018-06-19T14:53:58.634Z,100741.35
2018-06-19T14:56:28.437Z,100744.73
2018-06-19T14:58:58.212Z,100747.75
2018-06-19T15:01:28.041Z,100740.05
2018-06-19T15:03:58.161Z,100734.53
2018-06-19T15:06:27.989Z,100734.82
2018-06-19T15:08:57.775Z,100730.12
2018-06-19T15:11:27.605Z,100701.64
2018-06-19T15:13:57.604Z,100724.22
2018-06-19T15:16:27.345Z,100720.95
2018-06-19T15:18:57.169Z,100720.14
2018-06-19T15:21:27.109Z,100720.00
2018-06-19T15:23:56.915Z,100723.92
2018-06-19T15:26:26.686Z,100722.86
2018-06-19T15:28:56.513Z,100726.34
2018-06-19T15:31:26.283Z,100724.11
2018-06-19T15:33:56.050Z,100721.33
2018-06-19T15:36:25.893Z,100729.06
2018-06-19T15:38:55.683Z,100722.50
2018-06-19T15:41:25.548Z,100715.05
2018-06-19T15:43:55.719Z,100719.30
2018-06-19T15:46:25.530Z,100719.92
2018-06-19T15:48:55.330Z,100720.00
2018-06-19T15:51:25.239Z,100723.45
2018-06-19T15:53:55.014Z,100723.53
2018-06-19T15:56:25.346Z,100718.30
2018-06-19T15:58:55.321Z,100718.46
2018-06-19T16:01:25.137Z,100720.41
2018-06-19T16:03:55.006Z,100720.89
2018-06-19T16:06:24.801Z,100714.45
2018-06-19T16:08:54.661Z,100719.92
2018-06-19T16:11:24.506Z,100720.14
2018-06-19T16:13:54.343Z,100722.38
2018-06-19T16:16:24.177Z,100725.77
2018-06-19T16:18:53.949Z,100724.52
2018-06-19T16:21:23.778Z,100718.97
2018-06-19T16:23:53.771Z,100726.39
2018-06-19T16:26:23.775Z,100729.77
2018-06-19T16:28:53.534Z,100727.75
2018-06-19T16:31:23.305Z,100729.22
2018-06-19T16:33:53.089Z,100726.50
2018-06-19T16:36:22.870Z,100730.65
2018-06-19T16:38:52.706Z,100725.00
2018-06-19T16:41:22.561Z,100731.71
2018-06-19T16:43:52.448Z,100727.63
2018-06-19T16:46:22.374Z,100738.30
2018-06-19T16:48:52.501Z,100736.88
2018-06-19T16:51:22.310Z,100740.24
2018-06-19T16:53:52.109Z,100739.36
2018-06-19T16:56:21.941Z,100744.31
2018-06-19T16:58:51.733Z,100736.22
2018-06-19T17:01:21.705Z,100736.17
2018-06-19T17:03:51.549Z,100737.70
2018-06-19T17:06:21.446Z,100747.67
2018-06-19T17:08:51.253Z,100747.38
2018-06-19T17:11:21.058Z,100751.16
2018-06-19T17:13:50.933Z,100751.91
2018-06-19T17:16:21.201Z,100745.94
2018-06-19T17:18:51.155Z,100755.06
2018-06-19T17:21:21.057Z,100743.78
2018-06-19T17:23:51.040Z,100745.81
2018-06-19T17:26:20.990Z,100748.06
2018-06-19T17:28:50.834Z,100747.93
2018-06-19T17:31:20.705Z,100749.13
2018-06-19T17:33:50.495Z,100748.53
2018-06-19T17:36:20.433Z,100746.33
2018-06-19T17:38:50.177Z,100755.61
2018-06-19T17:41:19.922Z,100757.89
2018-06-19T17:43:49.786Z,100750.39
2018-06-19T17:46:19.584Z,100750.52
2018-06-19T17:48:49.399Z,100754.89
2018-06-19T17:51:19.173Z,100751.36
2018-06-19T17:53:49.052Z,100756.50
2018-06-19T17:56:18.966Z,100762.14
2018-06-19T17:58:48.784Z,100752.69
2018-06-19T18:01:18.571Z,100760.61
2018-06-19T18:03:48.486Z,100756.88
2018-06-19T18:06:18.267Z,100757.19
2018-06-19T18:08:48.832Z,100760.49
2018-06-19T18:11:18.676Z,100756.75
2018-06-19T18:13:48.550Z,100760.30
2018-06-19T18:16:55.153Z,100763.31
2018-06-19T18:19:25.002Z,100755.94
2018-06-19T18:21:54.801Z,100765.19
2018-06-19T18:24:24.860Z,100761.03
2018-06-19T18:26:54.698Z,100757.13
2018-06-19T18:29:24.521Z,100754.12
2018-06-19T18:31:54.386Z,100762.27
2018-06-19T18:34:24.198Z,100760.83
2018-06-19T18:36:54.067Z,100766.95
2018-06-19T18:39:23.929Z,100760.34
2018-06-19T18:41:53.739Z,100763.05
2018-06-19T18:44:23.606Z,100760.80
2018-06-19T18:46:53.492Z,100763.59
2018-06-19T18:49:23.743Z,100768.13
2018-06-19T18:51:53.616Z,100769.85
2018-06-19T18:54:24.520Z,100770.02
2018-06-19T18:56:54.370Z,100775.14
2018-06-19T18:59:24.240Z,100772.37
2018-06-19T19:01:54.146Z,100768.81
2018-06-19T19:04:24.065Z,100782.37
2018-06-19T19:06:53.892Z,100779.82
2018-06-19T19:09:23.990Z,100779.98
2018-06-19T19:11:53.867Z,100777.27
2018-06-19T19:14:23.727Z,100782.48
2018-06-19T19:16:58.403Z,100783.89
2018-06-19T19:19:28.181Z,100790.30
2018-06-19T19:21:58.374Z,100791.55
2018-06-19T19:24:28.342Z,100800.16
2018-06-19T19:27:03.236Z,100800.30
2018-06-19T19:29:37.974Z,100806.62
2018-06-19T19:32:07.964Z,100806.45
2018-06-19T19:34:38.045Z,100811.42
2018-06-19T19:37:12.965Z,100822.32
2018-06-19T19:39:42.793Z,100822.02
2018-06-19T19:42:12.818Z,100818.80
2018-06-19T19:44:42.773Z,100822.87
2018-06-19T19:47:17.556Z,100824.73
2018-06-19T19:49:47.352Z,100826.94
2018-06-19T19:52:17.385Z,100827.23
2018-06-19T19:54:47.297Z,100828.59
2018-06-19T19:57:22.075Z,100827.45
2018-06-19T19:59:52.065Z,100832.06
2018-06-19T20:02:22.039Z,100829.65
2018-06-19T20:04:51.884Z,100830.16
2018-06-19T20:07:21.858Z,100827.45
2018-06-19T20:09:51.705Z,100822.56
2018-06-19T20:12:21.638Z,100827.69
2018-06-19T20:14:51.507Z,100832.82
2018-06-19T20:17:21.415Z,100829.21
2018-06-19T20:19:51.171Z,100834.49
2018-06-19T20:22:20.964Z,100832.23
2018-06-19T20:24:50.932Z,100836.01
2018-06-19T20:27:20.769Z,100828.62
2018-06-19T20:29:50.661Z,100833.51
2018-06-19T20:32:20.441Z,100831.85
2018-06-19T20:34:50.287Z,100836.77
2018-06-19T20:37:20.103Z,100824.77
2018-06-19T20:39:49.861Z,100828.33
2018-06-19T20:42:19.797Z,100823.96
2018-06-19T20:44:49.600Z,100825.83
2018-06-19T20:47:19.481Z,100822.27
2018-06-19T20:49:49.430Z,100824.98
2018-06-19T20:52:19.343Z,100826.05
2018-06-19T20:54:49.106Z,100823.27
2018-06-19T20:57:18.957Z,100824.55
2018-06-19T20:59:49.005Z,100830.72
2018-06-19T21:02:18.927Z,100831.78
2018-06-19T21:04:48.937Z,100834.44
2018-06-19T21:07:18.980Z,100825.40
2018-06-19T21:09:49.023Z,100833.74
2018-06-19T21:12:18.895Z,100830.43
2018-06-19T21:14:48.694Z,100829.53
2018-06-19T21:17:18.520Z,100827.88
2018-06-19T21:19:48.438Z,100826.67
2018-06-19T21:22:18.292Z,100827.94
2018-06-19T21:24:48.046Z,100828.23
2018-06-19T21:27:17.798Z,100832.95
2018-06-19T21:29:47.569Z,100830.37
2018-06-19T21:32:17.323Z,100828.70
2018-06-19T21:34:47.121Z,100839.80
2018-06-19T21:37:16.867Z,100838.70
2018-06-19T21:39:46.638Z,100838.67
2018-06-19T21:42:16.430Z,100837.15
2018-06-19T21:44:46.157Z,100835.09
2018-06-19T21:47:15.882Z,100834.11
2018-06-19T21:49:45.785Z,100842.36
2018-06-19T21:52:15.529Z,100846.75
2018-06-19T21:54:45.328Z,100845.33
2018-06-19T21:57:15.063Z,100846.81
2018-06-19T21:59:44.785Z,100850.26
2018-06-19T22:02:18.532Z,100844.75
2018-06-19T22:04:48.276Z,100845.42
2018-06-19T22:07:18.010Z,100849.60
2018-06-19T22:09:47.846Z,100843.17
2018-06-19T22:12:17.577Z,100845.80
2018-06-19T22:14:51.229Z,100844.52
2018-06-19T22:17:23.512Z,100844.88
2018-06-19T22:19:56.510Z,100841.25
2018-06-19T22:22:29.011Z,100844.45
2018-06-19T22:27:27.193Z,100844.58
2018-06-19T22:29:57.554Z,100850.73
2018-06-19T22:32:27.749Z,100849.20
2018-06-19T22:34:57.527Z,100849.63
2018-06-19T22:37:27.289Z,100847.17
2018-06-19T22:39:57.097Z,100848.64
2018-06-19T22:42:26.882Z,100853.44
2018-06-19T22:44:56.641Z,100863.63
2018-06-19T22:47:26.450Z,100861.27
2018-06-19T22:49:56.319Z,100862.02
2018-06-19T22:52:26.135Z,100860.05
2018-06-19T22:54:55.917Z,100861.09
2018-06-19T22:57:26.196Z,100858.08
2018-06-19T22:59:55.977Z,100862.98
2018-06-19T23:02:25.801Z,100862.05
2018-06-19T23:04:55.577Z,100869.84
2018-06-19T23:07:25.349Z,100860.78
2018-06-19T23:09:55.085Z,100867.45
2018-06-19T23:12:24.866Z,100870.89
2018-06-19T23:14:54.598Z,100868.89
2018-06-19T23:17:24.375Z,100870.05
2018-06-19T23:19:54.110Z,100863.94
2018-06-19T23:22:23.851Z,100860.51
2018-06-19T23:24:53.641Z,100867.57
2018-06-19T23:27:23.369Z,100866.22
2018-06-19T23:29:53.106Z,100867.77
2018-06-19T23:32:22.905Z,100875.05
2018-06-19T23:34:52.650Z,100875.48
2018-06-19T23:37:22.429Z,100870.27
2018-06-19T23:39:52.190Z,100877.33
2018-06-19T23:42:21.931Z,100878.88
2018-06-19T23:44:51.741Z,100882.11
2018-06-19T23:47:21.461Z,100881.80
2018-06-19T23:49:51.233Z,100886.58
2018-06-19T23:52:21.009Z,100884.61
2018-06-19T23:54:50.756Z,100888.05
2018-06-19T23:57:20.547Z,100885.22
2018-06-19T23:59:50.270Z,100889.50
